createdAt,value
2018-06-05T00:01:25.867Z,7.90
2018-06-05T00:03:54.246Z,7.10
2018-06-05T00:06:22.720Z,7.70
2018-06-05T00:08:51.096Z,8.37
2018-06-05T00:11:19.512Z,6.67
2018-06-05T00:13:48.056Z,7.50
2018-06-05T00:16:16.509Z,6.70
2018-06-05T00:18:44.922Z,7.00
2018-06-05T00:21:13.305Z,7.20
2018-06-05T00:23:41.659Z,7.57
2018-06-05T00:26:10.089Z,7.57
2018-06-05T00:28:38.492Z,7.63
2018-06-05T00:31:06.916Z,8.90
2018-06-05T00:33:35.414Z,8.07
2018-06-05T00:36:03.935Z,6.23
2018-06-05T00:38:32.333Z,8.17
2018-06-05T00:41:00.735Z,8.20
2018-06-05T00:43:29.220Z,8.23
2018-06-05T00:45:57.638Z,8.20
2018-06-05T00:48:25.981Z,7.37
2018-06-05T00:50:54.327Z,7.70
2018-06-05T00:53:22.664Z,8.00
2018-06-05T00:55:51.069Z,7.07
2018-06-05T00:58:19.404Z,7.70
2018-06-05T01:00:47.748Z,7.83
2018-06-05T01:03:16.068Z,8.10
2018-06-05T01:05:44.508Z,7.50
2018-06-05T01:08:13.058Z,6.97
2018-06-05T01:10:41.531Z,6.60
2018-06-05T01:13:09.863Z,7.10
2018-06-05T01:15:38.303Z,7.67
2018-06-05T01:18:06.686Z,6.83
2018-06-05T01:20:35.104Z,6.00
2018-06-05T01:23:03.429Z,6.53
2018-06-05T01:25:31.800Z,7.50
2018-06-05T01:28:00.521Z,6.40
2018-06-05T01:30:28.941Z,6.70
2018-06-05T01:32:57.333Z,7.63
2018-06-05T01:35:25.652Z,7.60
2018-06-05T01:37:54.096Z,6.10
2018-06-05T01:40:22.474Z,6.37
2018-06-05T01:42:50.794Z,5.67
2018-06-05T01:45:19.148Z,5.70
2018-06-05T01:47:47.585Z,6.10
2018-06-05T01:50:16.006Z,5.70
2018-06-05T01:52:44.619Z,6.00
2018-06-05T01:55:13.184Z,5.60
2018-06-05T01:57:41.588Z,6.23
2018-06-05T02:00:09.971Z,6.70
2018-06-05T02:02:38.341Z,5.63
2018-06-05T02:05:06.690Z,5.27
2018-06-05T02:07:35.210Z,5.97
2018-06-05T02:10:03.612Z,6.13
2018-06-05T02:12:32.037Z,5.77
2018-06-05T02:15:00.434Z,6.07
2018-06-05T02:17:28.756Z,5.83
2018-06-05T02:19:57.204Z,5.50
2018-06-05T02:22:25.649Z,5.23
2018-06-05T02:24:54.008Z,5.83
2018-06-05T02:27:22.454Z,5.47
2018-06-05T02:29:50.793Z,5.40
2018-06-05T02:32:19.203Z,4.50
2018-06-05T02:34:47.581Z,5.30
2018-06-05T02:37:25.821Z,4.80
2018-06-05T02:39:54.501Z,4.87
2018-06-05T02:42:22.579Z,5.13
2018-06-05T02:44:51.121Z,5.00
2018-06-05T02:47:19.482Z,5.10
2018-06-05T02:49:47.896Z,4.47
2018-06-05T02:52:16.258Z,5.47
2018-06-05T02:54:44.748Z,4.30
2018-06-05T02:57:12.833Z,4.23
2018-06-05T02:59:41.216Z,4.10
2018-06-05T03:02:09.568Z,3.80
2018-06-05T03:04:37.941Z,4.00
2018-06-05T03:07:06.402Z,3.80
2018-06-05T03:09:53.454Z,4.00
2018-06-05T03:12:21.950Z,3.80
2018-06-05T03:14:50.270Z,4.20
2018-06-05T03:17:18.733Z,3.90
2018-06-05T03:19:47.052Z,3.87
2018-06-05T03:22:15.458Z,3.63
2018-06-05T03:24:43.906Z,3.50
2018-06-05T03:27:12.260Z,3.70
2018-06-05T03:29:40.650Z,3.67
2018-06-05T03:32:09.050Z,3.60
2018-06-05T03:34:37.499Z,4.70
2018-06-05T03:37:05.886Z,4.17
2018-06-05T03:39:34.212Z,4.00
2018-06-05T03:42:02.597Z,3.53
2018-06-05T03:44:30.924Z,4.27
2018-06-05T03:46:59.264Z,4.37
2018-06-05T03:49:27.661Z,4.03
2018-06-05T03:51:56.026Z,4.00
2018-06-05T03:54:24.379Z,5.07
2018-06-05T03:56:52.692Z,3.90
2018-06-05T03:59:21.064Z,4.07
2018-06-05T04:01:49.440Z,4.43
2018-06-05T04:04:17.822Z,3.80
2018-06-05T04:06:46.301Z,3.83
2018-06-05T04:09:14.976Z,3.57
2018-06-05T04:11:43.436Z,3.97
2018-06-05T04:14:14.245Z,4.00
2018-06-05T04:16:42.984Z,4.03
2018-06-05T04:19:11.390Z,4.03
2018-06-05T04:21:39.800Z,4.20
2018-06-05T04:24:08.213Z,4.37
2018-06-05T04:26:36.590Z,4.07
2018-06-05T04:29:04.973Z,4.60
2018-06-05T04:31:33.304Z,4.47
2018-06-05T04:34:01.677Z,4.70
2018-06-05T04:36:29.984Z,3.57
2018-06-05T04:38:58.328Z,4.33
2018-06-05T04:41:27.052Z,4.10
2018-06-05T04:43:55.559Z,4.80
2018-06-05T04:46:24.138Z,4.13
2018-06-05T04:48:52.640Z,4.43
2018-06-05T04:51:28.181Z,4.27
2018-06-05T04:53:56.826Z,4.47
2018-06-05T04:56:25.167Z,3.90
2018-06-05T04:58:53.500Z,3.80
2018-06-05T05:01:22.963Z,3.20
2018-06-05T05:04:12.005Z,4.00
2018-06-05T05:06:45.048Z,3.47
2018-06-05T05:09:26.780Z,3.77
2018-06-05T05:11:55.123Z,3.60
2018-06-05T05:14:23.531Z,4.20
2018-06-05T05:16:52.020Z,3.83
2018-06-05T05:19:20.308Z,3.70
2018-06-05T05:21:48.482Z,3.53
2018-06-05T05:24:19.556Z,3.73
2018-06-05T05:26:47.948Z,3.70
2018-06-05T05:29:16.460Z,3.27
2018-06-05T05:31:44.877Z,3.47
2018-06-05T05:34:23.371Z,3.63
2018-06-05T05:36:51.786Z,3.53
2018-06-05T05:39:20.619Z,3.70
2018-06-05T05:41:49.134Z,3.27
2018-06-05T05:44:17.440Z,3.67
2018-06-05T05:46:45.835Z,3.77
2018-06-05T05:49:14.181Z,3.40
2018-06-05T05:51:42.607Z,3.40
2018-06-05T05:54:11.081Z,3.70
2018-06-05T05:56:39.494Z,3.40
2018-06-05T05:59:07.933Z,3.43
2018-06-05T06:01:36.331Z,3.40
2018-06-05T06:04:05.107Z,3.70
2018-06-05T06:06:33.556Z,3.60
2018-06-05T06:09:01.947Z,3.23
2018-06-05T06:11:30.368Z,4.60
2018-06-05T06:13:58.684Z,3.65
2018-06-05T06:16:27.129Z,3.67
2018-06-05T06:18:55.578Z,3.77
2018-06-05T06:21:34.205Z,3.50
2018-06-05T06:24:02.536Z,3.40
2018-06-05T06:26:31.073Z,3.40
2018-06-05T06:28:59.482Z,3.20
2018-06-05T06:31:28.910Z,3.33
2018-06-05T06:33:57.428Z,2.97
2018-06-05T06:36:25.761Z,3.60
2018-06-05T06:38:54.244Z,3.23
2018-06-05T06:41:22.794Z,3.00
2018-06-05T06:43:51.320Z,3.23
2018-06-05T06:46:19.817Z,3.10
2018-06-05T06:48:48.337Z,3.47
2018-06-05T06:51:16.721Z,3.20
2018-06-05T06:53:45.190Z,3.53
2018-06-05T06:56:13.645Z,3.20
2018-06-05T06:58:42.159Z,3.33
2018-06-05T07:01:10.520Z,3.60
2018-06-05T07:03:38.964Z,3.70
2018-06-05T07:06:07.370Z,3.50
2018-06-05T07:08:35.809Z,3.57
2018-06-05T07:11:04.252Z,3.77
2018-06-05T07:13:32.691Z,3.40
2018-06-05T07:16:01.078Z,3.87
2018-06-05T07:18:29.448Z,3.27
2018-06-05T07:20:57.896Z,3.77
2018-06-05T07:23:26.301Z,3.50
2018-06-05T07:25:55.186Z,3.70
2018-06-05T07:28:23.588Z,3.70
2018-06-05T07:30:51.950Z,4.00
2018-06-05T07:33:20.704Z,4.40
2018-06-05T07:35:49.056Z,3.83
2018-06-05T07:38:17.403Z,3.50
2018-06-05T07:40:45.479Z,3.77
2018-06-05T07:43:13.847Z,3.90
2018-06-05T07:45:42.221Z,4.00
2018-06-05T07:48:10.605Z,4.10
2018-06-05T07:50:38.953Z,3.27
2018-06-05T07:53:07.343Z,3.93
2018-06-05T07:55:35.749Z,4.10
2018-06-05T07:58:04.068Z,3.90
2018-06-05T08:00:32.440Z,4.23
2018-06-05T08:03:00.823Z,4.10
2018-06-05T08:05:29.357Z,3.73
2018-06-05T08:07:57.736Z,4.00
2018-06-05T08:10:26.101Z,4.27
2018-06-05T08:12:54.532Z,4.67
2018-06-05T08:15:22.909Z,3.90
2018-06-05T08:17:51.421Z,4.53
2018-06-05T08:20:19.826Z,4.20
2018-06-05T08:22:53.506Z,4.60
2018-06-05T08:25:21.877Z,3.97
2018-06-05T08:27:50.297Z,3.90
2018-06-05T08:30:18.830Z,4.20
2018-06-05T08:32:47.149Z,4.07
2018-06-05T08:35:15.590Z,4.03
2018-06-05T08:37:44.012Z,4.13
2018-06-05T08:40:12.359Z,3.60
2018-06-05T08:42:40.781Z,3.90
2018-06-05T08:45:09.270Z,4.17
2018-06-05T08:47:37.764Z,4.67
2018-06-05T08:50:06.160Z,4.43
2018-06-05T08:52:34.660Z,4.20
2018-06-05T08:55:03.084Z,4.57
2018-06-05T08:57:31.573Z,4.53
2018-06-05T09:00:00.076Z,4.57
2018-06-05T09:02:28.807Z,3.77
2018-06-05T09:04:57.256Z,4.50
2018-06-05T09:07:25.600Z,4.40
2018-06-05T09:09:54.133Z,3.90
2018-06-05T09:12:22.531Z,3.47
2018-06-05T09:14:51.060Z,3.73
2018-06-05T09:17:19.445Z,4.50
2018-06-05T09:19:47.807Z,4.73
2018-06-05T09:22:16.500Z,4.77
2018-06-05T09:24:45.307Z,5.10
2018-06-05T09:27:13.740Z,3.40
2018-06-05T09:29:42.072Z,3.87
2018-06-05T09:32:10.480Z,3.50
2018-06-05T09:34:39.172Z,3.63
2018-06-05T09:37:07.662Z,4.30
2018-06-05T09:39:36.088Z,3.37
2018-06-05T09:42:04.457Z,4.27
2018-06-05T09:44:32.907Z,4.50
2018-06-05T09:47:01.265Z,3.83
2018-06-05T09:49:29.613Z,3.50
2018-06-05T09:51:58.092Z,4.50
2018-06-05T09:54:26.394Z,3.67
2018-06-05T09:56:54.947Z,3.70
2018-06-05T09:59:23.493Z,3.70
2018-06-05T10:01:51.850Z,3.70
2018-06-05T10:04:20.289Z,4.90
2018-06-05T10:06:48.721Z,3.70
2018-06-05T10:09:17.246Z,4.33
2018-06-05T10:11:45.642Z,4.20
2018-06-05T10:14:14.062Z,4.17
2018-06-05T10:16:42.520Z,4.13
2018-06-05T10:19:10.966Z,4.20
2018-06-05T10:21:39.326Z,4.93
2018-06-05T10:24:07.932Z,4.13
2018-06-05T10:26:36.348Z,3.80
2018-06-05T10:29:05.297Z,3.83
2018-06-05T10:31:33.760Z,2.97
2018-06-05T10:34:01.898Z,4.10
2018-06-05T10:36:30.418Z,5.17
2018-06-05T10:38:58.932Z,3.47
2018-06-05T10:41:27.412Z,4.53
2018-06-05T10:43:55.732Z,4.33
2018-06-05T10:46:24.143Z,3.93
2018-06-05T10:48:52.494Z,5.13
2018-06-05T10:51:20.864Z,5.43
2018-06-05T10:53:49.354Z,5.53
2018-06-05T10:56:17.761Z,4.67
2018-06-05T10:58:46.132Z,5.53
2018-06-05T11:01:14.533Z,4.80
2018-06-05T11:03:42.977Z,5.70
2018-06-05T11:06:11.543Z,3.97
2018-06-05T11:08:39.940Z,3.70
2018-06-05T11:11:08.485Z,3.30
2018-06-05T11:13:37.030Z,4.10
2018-06-05T11:16:05.617Z,4.20
2018-06-05T11:18:34.134Z,4.90
2018-06-05T11:21:02.616Z,5.33
2018-06-05T11:23:31.298Z,3.70
2018-06-05T11:25:59.657Z,4.07
2018-06-05T11:28:32.472Z,4.13
2018-06-05T11:31:06.497Z,5.10
2018-06-05T11:33:34.888Z,4.67
2018-06-05T11:36:03.306Z,4.70
2018-06-05T11:38:31.815Z,4.30
2018-06-05T11:41:00.210Z,4.27
2018-06-05T11:43:28.604Z,3.73
2018-06-05T11:45:56.659Z,4.20
2018-06-05T11:48:25.012Z,6.00
2018-06-05T11:50:53.308Z,5.00
2018-06-05T11:53:21.704Z,4.00
2018-06-05T11:55:50.148Z,4.27
2018-06-05T11:58:18.626Z,5.37
2018-06-05T12:00:48.299Z,3.80
2018-06-05T12:03:17.522Z,4.13
2018-06-05T12:05:46.734Z,3.53
2018-06-05T12:08:15.079Z,4.80
2018-06-05T12:10:43.786Z,4.20
2018-06-05T12:13:12.290Z,3.97
2018-06-05T12:15:40.749Z,3.90
2018-06-05T12:18:10.760Z,3.30
2018-06-05T12:20:48.839Z,4.50
2018-06-05T12:23:22.019Z,4.50
2018-06-05T12:25:50.502Z,3.57
2018-06-05T12:28:19.461Z,4.80
2018-06-05T12:30:50.934Z,3.70
2018-06-05T12:33:21.272Z,3.60
2018-06-05T12:35:49.770Z,4.57
2018-06-05T12:38:18.188Z,4.37
2018-06-05T12:40:46.676Z,5.23
2018-06-05T12:43:17.018Z,3.80
2018-06-05T12:45:47.820Z,3.70
2018-06-05T12:48:22.585Z,3.47
2018-06-05T12:50:51.042Z,3.60
2018-06-05T12:53:19.623Z,3.67
2018-06-05T12:55:48.230Z,3.87
2018-06-05T12:58:16.685Z,4.17
2018-06-05T13:00:45.202Z,4.47
2018-06-05T13:03:13.608Z,3.10
2018-06-05T13:05:42.233Z,4.30
2018-06-05T13:08:10.760Z,3.87
2018-06-05T13:10:39.265Z,4.07
2018-06-05T13:13:08.407Z,3.90
2018-06-05T13:15:36.871Z,4.17
2018-06-05T13:18:05.770Z,4.40
2018-06-05T13:20:34.204Z,5.33
2018-06-05T13:23:03.488Z,3.87
2018-06-05T13:25:31.949Z,2.90
2018-06-05T13:28:00.640Z,4.37
2018-06-05T13:30:28.991Z,3.53
2018-06-05T13:32:57.655Z,4.43
2018-06-05T13:35:26.860Z,4.13
2018-06-05T13:37:55.831Z,3.72
2018-06-05T13:40:24.264Z,4.47
2018-06-05T13:42:52.654Z,3.83
2018-06-05T13:45:20.962Z,4.00
2018-06-05T13:47:49.307Z,3.63
2018-06-05T13:50:18.698Z,4.50
2018-06-05T13:52:48.372Z,5.17
2018-06-05T13:55:17.524Z,3.53
2018-06-05T13:57:46.955Z,4.10
2018-06-05T14:00:15.438Z,3.43
2018-06-05T14:02:45.696Z,3.67
2018-06-05T14:05:15.118Z,3.20
2018-06-05T14:07:46.848Z,3.57
2018-06-05T14:10:16.250Z,3.77
2018-06-05T14:12:45.486Z,4.30
2018-06-05T14:15:14.166Z,4.47
2018-06-05T14:17:42.668Z,3.23
2018-06-05T14:20:11.386Z,4.20
2018-06-05T14:22:39.729Z,3.97
2018-06-05T14:25:09.221Z,4.10
2018-06-05T14:27:37.716Z,4.60
2018-06-05T14:30:06.142Z,3.90
2018-06-05T14:32:34.743Z,6.17
2018-06-05T14:35:04.633Z,10.70
2018-06-05T14:37:33.382Z,5.03
2018-06-05T14:40:01.725Z,4.17
2018-06-05T14:42:30.157Z,4.53
2018-06-05T14:44:58.549Z,4.50
2018-06-05T14:47:27.096Z,4.63
2018-06-05T14:49:55.681Z,4.13
2018-06-05T14:52:24.204Z,5.20
2018-06-05T14:54:53.101Z,4.53
2018-06-05T14:57:21.530Z,4.57
2018-06-05T14:59:50.593Z,4.07
2018-06-05T15:02:19.201Z,4.17
2018-06-05T15:04:47.722Z,4.47
2018-06-05T15:07:16.795Z,4.23
2018-06-05T15:09:46.548Z,4.30
2018-06-05T15:12:17.474Z,3.17
2018-06-05T15:14:45.877Z,4.47
2018-06-05T15:17:15.273Z,5.22
2018-06-05T15:19:43.712Z,3.77
2018-06-05T15:22:12.251Z,4.78
2018-06-05T15:24:41.054Z,3.90
2018-06-05T15:27:09.932Z,4.23
2018-06-05T15:29:41.077Z,4.10
2018-06-05T15:32:09.611Z,3.93
2018-06-05T15:34:38.048Z,3.80
2018-06-05T15:37:16.493Z,4.07
2018-06-05T15:39:44.992Z,4.20
2018-06-05T15:42:13.377Z,4.33
2018-06-05T15:44:41.876Z,3.73
2018-06-05T15:47:10.489Z,3.07
2018-06-05T15:49:38.994Z,3.70
2018-06-05T15:52:07.385Z,4.13
2018-06-05T15:54:35.790Z,4.07
2018-06-05T15:57:13.907Z,3.53
2018-06-05T15:59:48.229Z,3.17
2018-06-05T16:02:16.797Z,3.53
2018-06-05T16:04:55.011Z,3.57
2018-06-05T16:07:33.660Z,2.93
2018-06-05T16:10:12.352Z,3.60
2018-06-05T16:12:40.937Z,3.47
2018-06-05T16:15:09.387Z,4.10
2018-06-05T16:17:37.825Z,4.37
2018-06-05T16:20:12.272Z,3.30
2018-06-05T16:22:40.601Z,3.90
2018-06-05T16:25:09.174Z,3.90
2018-06-05T16:27:37.662Z,3.67
2018-06-05T16:30:11.719Z,3.17
2018-06-05T16:32:40.065Z,3.20
2018-06-05T16:35:08.700Z,2.80
2018-06-05T16:37:37.213Z,4.30
2018-06-05T16:40:05.916Z,3.10
2018-06-05T16:42:34.149Z,3.30
2018-06-05T16:45:02.543Z,3.30
2018-06-05T16:47:32.905Z,3.37
2018-06-05T16:50:01.406Z,3.43
2018-06-05T16:52:30.033Z,3.20
2018-06-05T16:54:59.541Z,4.07
2018-06-05T16:57:27.639Z,2.73
2018-06-05T17:00:06.323Z,3.20
2018-06-05T17:02:38.833Z,3.03
2018-06-05T17:05:07.252Z,2.97
2018-06-05T17:07:35.678Z,4.43
2018-06-05T17:10:13.833Z,3.43
2018-06-05T17:12:42.288Z,3.90
2018-06-05T17:15:12.829Z,3.43
2018-06-05T17:17:49.283Z,3.07
2018-06-05T17:20:26.974Z,3.40
2018-06-05T17:22:57.424Z,3.13
2018-06-05T17:25:27.256Z,3.43
2018-06-05T17:27:58.515Z,3.50
2018-06-05T17:30:26.684Z,3.30
2018-06-05T17:32:55.344Z,2.97
2018-06-05T17:35:25.049Z,4.17
2018-06-05T17:37:55.001Z,3.27
2018-06-05T17:40:23.420Z,4.15
2018-06-05T17:42:57.621Z,3.92
2018-06-05T17:45:26.093Z,4.70
2018-06-05T17:47:54.985Z,4.00
2018-06-05T17:50:23.791Z,4.70
2018-06-05T17:52:53.026Z,3.30
2018-06-05T17:55:22.093Z,3.13
2018-06-05T17:57:51.001Z,3.43
2018-06-05T18:00:19.518Z,3.63
2018-06-05T18:02:48.389Z,3.20
2018-06-05T18:05:26.524Z,4.90
2018-06-05T18:07:55.341Z,3.13
2018-06-05T18:10:25.357Z,3.50
2018-06-05T18:12:54.379Z,4.40
2018-06-05T18:15:22.762Z,3.70
2018-06-05T18:17:51.305Z,3.60
2018-06-05T18:20:20.212Z,3.20
2018-06-05T18:22:48.932Z,4.30
2018-06-05T18:25:17.657Z,3.77
2018-06-05T18:27:46.194Z,3.53
2018-06-05T18:30:15.165Z,3.57
2018-06-05T18:32:43.612Z,3.70
2018-06-05T18:35:12.013Z,3.98
2018-06-05T18:37:40.477Z,3.90
2018-06-05T18:40:09.058Z,3.27
2018-06-05T18:42:37.456Z,4.00
2018-06-05T18:45:06.067Z,4.10
2018-06-05T18:47:34.620Z,3.60
2018-06-05T18:50:03.042Z,3.83
2018-06-05T18:52:36.694Z,4.47
2018-06-05T18:55:05.092Z,3.50
2018-06-05T18:57:33.502Z,4.33
2018-06-05T19:00:01.877Z,4.07
2018-06-05T19:02:30.604Z,3.23
2018-06-05T19:05:00.460Z,3.93
2018-06-05T19:07:31.103Z,4.35
2018-06-05T19:10:02.420Z,4.10
2018-06-05T19:12:31.290Z,3.67
2018-06-05T19:14:59.814Z,3.87
2018-06-05T19:17:28.450Z,3.53
2018-06-05T19:19:57.258Z,3.97
2018-06-05T19:22:26.452Z,3.47
2018-06-05T19:24:55.200Z,3.30
2018-06-05T19:27:23.891Z,4.07
2018-06-05T19:29:52.666Z,3.43
2018-06-05T19:32:21.318Z,3.50
2018-06-05T19:34:50.836Z,3.67
2018-06-05T19:37:19.560Z,3.90
2018-06-05T19:39:47.943Z,3.40
2018-06-05T19:42:17.789Z,4.33
2018-06-05T19:44:54.124Z,3.80
2018-06-05T19:47:22.709Z,3.83
2018-06-05T19:49:53.584Z,3.63
2018-06-05T19:52:24.343Z,3.50
2018-06-05T19:55:03.113Z,4.47
2018-06-05T19:57:32.365Z,4.60
2018-06-05T20:00:00.889Z,3.83
2018-06-05T20:02:29.500Z,3.73
2018-06-05T20:04:58.178Z,4.00
2018-06-05T20:07:26.923Z,3.57
2018-06-05T20:10:18.358Z,4.47
2018-06-05T20:12:49.603Z,5.45
2018-06-05T20:15:49.034Z,6.40
2018-06-05T20:18:17.854Z,4.00
2018-06-05T20:20:46.555Z,4.13
2018-06-05T20:23:27.413Z,4.10
2018-06-05T20:25:56.561Z,4.37
2018-06-05T20:28:32.843Z,3.87
2018-06-05T20:31:02.413Z,3.63
2018-06-05T20:33:31.249Z,3.47
2018-06-05T20:36:05.705Z,3.57
2018-06-05T20:38:34.552Z,3.77
2018-06-05T20:41:03.742Z,4.27
2018-06-05T20:43:32.185Z,4.03
2018-06-05T20:46:00.693Z,3.37
2018-06-05T20:48:29.105Z,4.23
2018-06-05T20:50:57.471Z,3.60
2018-06-05T20:53:26.110Z,4.00
2018-06-05T20:55:54.753Z,4.07
2018-06-05T20:58:23.185Z,3.63
2018-06-05T21:01:01.106Z,3.80
2018-06-05T21:03:32.723Z,3.97
2018-06-05T21:06:01.226Z,3.70
2018-06-05T21:08:29.668Z,3.97
2018-06-05T21:10:58.302Z,3.43
2018-06-05T21:13:26.736Z,3.60
2018-06-05T21:15:55.221Z,3.30
2018-06-05T21:18:23.642Z,3.27
2018-06-05T21:20:52.089Z,3.27
2018-06-05T21:23:20.450Z,3.23
2018-06-05T21:25:49.243Z,3.47
2018-06-05T21:28:17.669Z,3.60
2018-06-05T21:30:46.068Z,4.13
2018-06-05T21:33:14.562Z,3.67
2018-06-05T21:35:42.905Z,3.70
2018-06-05T21:38:11.275Z,3.60
2018-06-05T21:40:39.682Z,3.60
2018-06-05T21:43:08.012Z,3.30
2018-06-05T21:45:36.468Z,3.50
2018-06-05T21:48:05.006Z,3.77
2018-06-05T21:50:33.395Z,4.00
2018-06-05T21:53:02.150Z,3.80
2018-06-05T21:55:30.533Z,3.97
2018-06-05T21:57:58.984Z,4.47
2018-06-05T22:00:27.456Z,3.70
2018-06-05T22:02:55.962Z,3.40
2018-06-05T22:05:24.424Z,3.90
2018-06-05T22:07:52.925Z,3.70
2018-06-05T22:10:21.698Z,4.00
2018-06-05T22:12:50.120Z,3.37
2018-06-05T22:15:18.552Z,3.57
2018-06-05T22:17:46.962Z,3.40
2018-06-05T22:20:15.420Z,3.70
2018-06-05T22:22:44.323Z,3.07
2018-06-05T22:25:12.773Z,3.60
2018-06-05T22:27:41.193Z,3.60
2018-06-05T22:30:09.637Z,3.63
2018-06-05T22:32:38.181Z,3.80
2018-06-05T22:35:06.643Z,3.80
2018-06-05T22:37:35.221Z,3.73
2018-06-05T22:40:03.757Z,4.00
2018-06-05T22:42:32.244Z,3.10
2018-06-05T22:45:01.759Z,3.33
2018-06-05T22:47:30.277Z,4.13
2018-06-05T22:49:58.713Z,3.43
2018-06-05T22:52:27.186Z,3.77
2018-06-05T22:54:56.497Z,3.70
2018-06-05T22:57:24.843Z,3.47
2018-06-05T22:59:53.246Z,3.90
2018-06-05T23:02:22.094Z,3.70
2018-06-05T23:04:50.537Z,4.03
2018-06-05T23:07:18.991Z,3.63
2018-06-05T23:09:47.490Z,3.60
2018-06-05T23:12:15.901Z,3.70
2018-06-05T23:14:44.314Z,3.73
2018-06-05T23:17:12.697Z,3.70
2018-06-05T23:19:41.290Z,3.50
2018-06-05T23:22:09.718Z,3.27
2018-06-05T23:24:38.232Z,3.77
2018-06-05T23:27:06.573Z,3.67
2018-06-05T23:29:35.024Z,4.37
2018-06-05T23:32:03.540Z,3.80
2018-06-05T23:34:32.005Z,3.50
2018-06-05T23:37:00.432Z,4.00
2018-06-05T23:39:28.857Z,3.57
2018-06-05T23:41:57.301Z,3.63
2018-06-05T23:44:25.765Z,3.37
2018-06-05T23:46:54.219Z,3.77
2018-06-05T23:49:22.650Z,3.87
2018-06-05T23:51:55.336Z,3.87
2018-06-05T23:54:23.706Z,3.30
2018-06-05T23:56:52.073Z,3.80
2018-06-05T23:59:20.491Z,4.10
